Time;durP1;ratioP1;P1;durP2;ratioP2;P2;SDS_P1;SDS_P2;PMS_P1;PMS_P2;Temp;Humidity;BMP_temperature;BMP_pressure;BME280_temperature;BME280_humidity;BME280_pressure;Samples;Min_cycle;Max_cycle;Signal;HPM_P1;HPM_P2
2021/04/25 00:03:32;;;;;;;44.42;14.98;;;;;;;;;;8285388;28;20406;-70
2021/04/25 00:07:36;;;;;;;55.65;15.95;;;;;;;;;;8286353;28;20056;-70
2021/04/25 00:11:40;;;;;;;67.22;20.90;;;;;;;;;;8286760;28;20406;-70
2021/04/25 00:15:44;;;;;;;61.25;20.23;;;;;;;;;;8284041;28;20463;-70
2021/04/25 00:19:49;;;;;;;55.65;17.80;;;;;;;;;;8290070;28;20493;-71
2021/04/25 00:23:55;;;;;;;37.20;14.50;;;;;;;;;;8290394;28;20493;-70
2021/04/25 00:28:00;;;;;;;37.83;12.73;;;;;;;;;;8287924;28;20502;-70
2021/04/25 00:32:06;;;;;;;34.22;11.52;;;;;;;;;;8289918;28;20422;-71
2021/04/25 00:36:10;;;;;;;31.95;11.60;;;;;;;;;;8288787;28;20483;-70
2021/04/25 00:40:19;;;;;;;36.80;11.98;;;;;;;;;;8294612;28;20471;-70
2021/04/25 00:44:23;;;;;;;32.67;10.80;;;;;;;;;;8295447;28;20060;-70
2021/04/25 00:48:27;;;;;;;30.77;10.70;;;;;;;;;;8294379;28;20790;-70
2021/04/25 00:52:38;;;;;;;27.38;9.50;;;;;;;;;;8295814;28;20362;-70
2021/04/25 00:56:43;;;;;;;26.17;8.63;;;;;;;;;;8295282;28;20383;-70
2021/04/25 01:00:47;;;;;;;23.80;8.82;;;;;;;;;;8295622;28;20079;-70
2021/04/25 01:04:51;;;;;;;32.30;10.65;;;;;;;;;;8327024;28;20070;-70
2021/04/25 01:08:55;;;;;;;28.10;9.40;;;;;;;;;;8326855;28;20479;-70
2021/04/25 01:13:00;;;;;;;22.75;9.60;;;;;;;;;;8329202;28;20470;-70
2021/04/25 01:17:05;;;;;;;23.83;8.48;;;;;;;;;;8326984;28;20381;-70
2021/04/25 01:21:08;;;;;;;25.17;9.27;;;;;;;;;;8327516;28;20521;-70
2021/04/25 01:25:16;;;;;;;20.63;8.63;;;;;;;;;;8342826;28;20584;-70
2021/04/25 01:29:20;;;;;;;28.30;9.27;;;;;;;;;;8328202;28;20394;-70
2021/04/25 01:33:28;;;;;;;35.38;9.32;;;;;;;;;;8326471;28;20509;-70
2021/04/25 01:37:32;;;;;;;30.27;11.15;;;;;;;;;;8326494;28;20382;-70
2021/04/25 01:41:37;;;;;;;25.63;10.02;;;;;;;;;;8324977;28;20051;-69
2021/04/25 01:45:42;;;;;;;23.20;8.45;;;;;;;;;;8326417;28;20052;-69
2021/04/25 01:49:46;;;;;;;21.98;8.82;;;;;;;;;;8325406;28;20070;-71
2021/04/25 01:53:49;;;;;;;30.80;10.15;;;;;;;;;;8326364;28;20482;-70
2021/04/25 01:57:55;;;;;;;27.33;9.90;;;;;;;;;;8327578;28;20509;-70
2021/04/25 02:02:00;;;;;;;26.27;11.15;;;;;;;;;;8327828;28;20355;-70
2021/04/25 02:06:11;;;;;;;38.88;13.75;;;;;;;;;;8324433;28;20402;-70
2021/04/25 02:10:17;;;;;;;28.52;11.13;;;;;;;;;;8327189;28;20137;-70
2021/04/25 02:14:22;;;;;;;27.15;8.95;;;;;;;;;;8326326;28;20382;-70
2021/04/25 02:18:26;;;;;;;23.70;9.15;;;;;;;;;;8326183;28;20413;-70
2021/04/25 02:22:31;;;;;;;26.83;8.82;;;;;;;;;;8324182;28;20481;-70
2021/04/25 02:26:36;;;;;;;35.10;11.63;;;;;;;;;;8325606;28;20074;-70
2021/04/25 02:30:41;;;;;;;29.55;10.55;;;;;;;;;;8325268;28;20405;-70
2021/04/25 02:34:46;;;;;;;35.97;12.60;;;;;;;;;;8325298;28;20413;-70
2021/04/25 02:38:50;;;;;;;32.15;13.15;;;;;;;;;;8326846;28;20461;-69
2021/04/25 02:42:56;;;;;;;33.28;12.38;;;;;;;;;;8324644;28;20393;-70
2021/04/25 02:47:01;;;;;;;30.00;13.10;;;;;;;;;;8323341;28;20505;-69
2021/04/25 02:51:05;;;;;;;29.38;11.52;;;;;;;;;;8327473;28;20382;-70
2021/04/25 02:55:11;;;;;;;36.65;13.23;;;;;;;;;;8306771;28;20459;-70
2021/04/25 02:59:15;;;;;;;35.35;13.18;;;;;;;;;;8320567;28;20060;-70
2021/04/25 03:03:19;;;;;;;38.95;14.23;;;;;;;;;;8319973;28;20449;-71
2021/04/25 03:07:24;;;;;;;33.95;13.52;;;;;;;;;;8318041;28;20451;-72
2021/04/25 03:11:28;;;;;;;41.35;13.40;;;;;;;;;;8320967;28;20493;-70
2021/04/25 03:15:32;;;;;;;42.50;15.02;;;;;;;;;;8321347;28;20366;-70
2021/04/25 03:19:37;;;;;;;37.03;14.23;;;;;;;;;;8319958;28;20466;-70
2021/04/25 03:23:41;;;;;;;41.47;14.10;;;;;;;;;;8318541;28;20060;-70
2021/04/25 03:27:48;;;;;;;38.80;13.20;;;;;;;;;;8318210;28;20463;-70
2021/04/25 03:31:52;;;;;;;32.42;12.65;;;;;;;;;;8321314;28;20383;-70
2021/04/25 03:35:57;;;;;;;35.30;14.43;;;;;;;;;;8318264;28;20467;-70
2021/04/25 03:40:06;;;;;;;33.50;14.10;;;;;;;;;;8317973;28;20500;-71
2021/04/25 03:44:13;;;;;;;34.90;13.90;;;;;;;;;;8319818;28;20438;-69
2021/04/25 03:48:18;;;;;;;31.60;13.10;;;;;;;;;;8319814;28;20102;-69
2021/04/25 03:52:23;;;;;;;30.77;13.15;;;;;;;;;;8319887;28;20371;-70
2021/04/25 03:56:28;;;;;;;34.65;13.73;;;;;;;;;;8321554;28;20474;-71
2021/04/25 04:00:32;;;;;;;32.92;13.23;;;;;;;;;;8321208;28;20355;-69
2021/04/25 04:04:36;;;;;;;28.80;12.95;;;;;;;;;;8321472;28;20397;-71
2021/04/25 04:08:40;;;;;;;39.60;16.42;;;;;;;;;;8319365;28;20446;-70
2021/04/25 04:12:43;;;;;;;69.97;24.65;;;;;;;;;;8319567;28;20479;-70
2021/04/25 04:16:47;;;;;;;46.22;18.85;;;;;;;;;;8324542;28;20336;-70
2021/04/25 04:20:52;;;;;;;37.38;16.05;;;;;;;;;;8325368;28;20470;-70
2021/04/25 04:24:56;;;;;;;32.17;14.43;;;;;;;;;;8323501;28;20490;-70
2021/04/25 04:29:01;;;;;;;29.20;13.50;;;;;;;;;;8325311;28;20373;-72
2021/04/25 04:33:05;;;;;;;34.97;13.98;;;;;;;;;;8325133;28;20528;-71
2021/04/25 04:37:10;;;;;;;38.95;13.32;;;;;;;;;;8325780;28;20374;-71
2021/04/25 04:41:14;;;;;;;38.28;15.65;;;;;;;;;;8324635;28;20048;-70
2021/04/25 04:45:19;;;;;;;53.17;19.67;;;;;;;;;;8325849;28;20423;-70
2021/04/25 04:49:23;;;;;;;37.40;15.23;;;;;;;;;;8323835;28;20048;-71
2021/04/25 04:53:27;;;;;;;36.17;15.45;;;;;;;;;;8324789;28;20330;-70
2021/04/25 04:57:31;;;;;;;41.10;18.67;;;;;;;;;;8325244;28;20450;-69
2021/04/25 05:01:35;;;;;;;48.33;19.88;;;;;;;;;;8325564;28;20428;-71
2021/04/25 05:05:38;;;;;;;58.67;26.38;;;;;;;;;;8324533;28;20360;-70
2021/04/25 05:09:43;;;;;;;68.90;28.05;;;;;;;;;;8324290;28;20078;-70
2021/04/25 05:13:47;;;;;;;52.78;22.48;;;;;;;;;;8324422;28;20363;-70
2021/04/25 05:17:52;;;;;;;36.60;16.55;;;;;;;;;;8326009;28;20493;-70
2021/04/25 05:21:57;;;;;;;33.67;16.23;;;;;;;;;;8327184;28;20501;-71
2021/04/25 05:26:01;;;;;;;40.28;16.55;;;;;;;;;;8326077;28;20390;-70
2021/04/25 05:30:06;;;;;;;40.95;16.80;;;;;;;;;;8329703;28;20451;-71
2021/04/25 05:34:12;;;;;;;36.65;15.85;;;;;;;;;;8327356;28;20364;-70
2021/04/25 05:38:16;;;;;;;37.10;15.80;;;;;;;;;;8327322;28;20467;-71
2021/04/25 05:42:20;;;;;;;36.80;16.25;;;;;;;;;;8324580;28;20512;-70
2021/04/25 05:46:25;;;;;;;37.45;15.75;;;;;;;;;;8326461;28;20459;-70
2021/04/25 05:50:30;;;;;;;37.65;16.98;;;;;;;;;;8326149;28;20044;-70
2021/04/25 05:54:34;;;;;;;38.60;14.30;;;;;;;;;;8341722;28;20447;-70
2021/04/25 05:58:39;;;;;;;38.22;16.05;;;;;;;;;;8326128;28;20473;-70
2021/04/25 06:02:43;;;;;;;37.58;16.27;;;;;;;;;;8326822;28;20393;-71
2021/04/25 06:06:46;;;;;;;37.83;15.65;;;;;;;;;;8325909;28;20070;-70
2021/04/25 06:10:50;;;;;;;38.35;15.55;;;;;;;;;;8325147;28;20364;-71
2021/04/25 06:14:55;;;;;;;33.00;15.90;;;;;;;;;;8325592;28;20352;-71
2021/04/25 06:19:00;;;;;;;36.20;15.27;;;;;;;;;;8325664;28;20409;-70
2021/04/25 06:23:04;;;;;;;42.83;14.32;;;;;;;;;;8324147;28;20451;-71
2021/04/25 06:27:09;;;;;;;30.83;13.35;;;;;;;;;;8325499;28;20339;-71
2021/04/25 06:31:14;;;;;;;31.23;12.75;;;;;;;;;;8324933;28;20386;-71
2021/04/25 06:35:22;;;;;;;35.38;14.00;;;;;;;;;;8322564;28;20513;-71
2021/04/25 06:39:26;;;;;;;29.65;12.27;;;;;;;;;;8324863;28;20056;-70
2021/04/25 06:43:32;;;;;;;25.67;9.93;;;;;;;;;;8325487;28;20348;-71
2021/04/25 06:47:36;;;;;;;20.38;7.85;;;;;;;;;;8340889;28;20467;-70
2021/04/25 06:51:42;;;;;;;16.80;7.05;;;;;;;;;;8324868;28;20047;-70
2021/04/25 06:55:46;;;;;;;24.20;9.50;;;;;;;;;;8325389;28;20055;-71
2021/04/25 06:59:51;;;;;;;16.20;5.40;;;;;;;;;;8324956;28;20455;-72
2021/04/25 07:03:55;;;;;;;11.23;3.85;;;;;;;;;;8323752;28;20451;-72
2021/04/25 07:08:07;;;;;;;14.88;3.25;;;;;;;;;;8321845;28;20362;-71
2021/04/25 07:12:11;;;;;;;11.10;4.70;;;;;;;;;;8326424;28;20565;-71
2021/04/25 07:16:14;;;;;;;11.40;4.60;;;;;;;;;;8323964;28;20454;-71
2021/04/25 07:20:19;;;;;;;9.30;3.58;;;;;;;;;;8323661;28;20044;-72
2021/04/25 07:24:23;;;;;;;10.60;5.13;;;;;;;;;;8325518;28;20316;-71
2021/04/25 07:28:27;;;;;;;14.75;6.63;;;;;;;;;;8324687;28;20461;-72
2021/04/25 07:32:33;;;;;;;13.10;5.88;;;;;;;;;;8326377;28;20496;-71
2021/04/25 07:36:44;;;;;;;8.13;3.45;;;;;;;;;;8306861;28;20070;-71
2021/04/25 07:40:49;;;;;;;5.18;2.50;;;;;;;;;;8322469;28;20450;-72
2021/04/25 07:44:55;;;;;;;7.38;3.42;;;;;;;;;;8322242;28;20054;-71
2021/04/25 07:49:00;;;;;;;7.00;2.10;;;;;;;;;;8327717;28;20459;-72
2021/04/25 07:53:05;;;;;;;4.30;2.00;;;;;;;;;;8330033;28;20469;-73
2021/04/25 07:57:09;;;;;;;7.07;3.00;;;;;;;;;;8331269;28;20443;-71
2021/04/25 08:01:15;;;;;;;10.90;4.35;;;;;;;;;;8330243;28;20459;-72
2021/04/25 08:05:18;;;;;;;8.13;3.15;;;;;;;;;;8330412;28;20352;-72
2021/04/25 08:09:23;;;;;;;4.50;2.33;;;;;;;;;;8329803;28;20374;-71
2021/04/25 08:13:28;;;;;;;8.10;3.67;;;;;;;;;;8330968;28;20474;-71
2021/04/25 08:17:32;;;;;;;17.38;5.70;;;;;;;;;;8329573;28;20105;-71
2021/04/25 08:21:35;;;;;;;8.73;3.80;;;;;;;;;;8312180;28;20377;-70
2021/04/25 08:25:43;;;;;;;12.90;4.13;;;;;;;;;;8329225;28;20391;-71
2021/04/25 08:29:47;;;;;;;4.10;1.95;;;;;;;;;;8329479;28;20056;-71
2021/04/25 08:34:03;;;;;;;3.25;1.70;;;;;;;;;;8329387;28;20399;-71
2021/04/25 08:38:08;;;;;;;3.67;1.85;;;;;;;;;;8329699;28;20340;-71
2021/04/25 08:42:14;;;;;;;5.80;2.58;;;;;;;;;;8329989;28;20056;-71
2021/04/25 08:46:21;;;;;;;5.03;1.88;;;;;;;;;;8327574;28;20486;-71
2021/04/25 08:50:32;;;;;;;3.25;1.33;;;;;;;;;;8327055;28;20355;-70
2021/04/25 08:54:37;;;;;;;8.10;4.22;;;;;;;;;;8327035;28;20481;-70
2021/04/25 08:59:06;;;;;;;6.75;2.13;;;;;;;;;;8385378;27;20819;-70
2021/04/25 09:03:11;;;;;;;4.28;1.83;;;;;;;;;;8352451;28;20347;-71
2021/04/25 09:07:17;;;;;;;6.10;2.25;;;;;;;;;;8352105;28;20467;-71
2021/04/25 09:11:39;;;;;;;4.97;2.80;;;;;;;;;;8352901;28;20389;-71
2021/04/25 09:15:43;;;;;;;24.77;6.97;;;;;;;;;;8335093;28;20340;-71
2021/04/25 09:19:59;;;;;;;3.15;1.83;;;;;;;;;;8336436;28;20070;-71
2021/04/25 09:24:24;;;;;;;3.50;2.05;;;;;;;;;;8334283;28;20465;-71
2021/04/25 09:28:28;;;;;;;7.25;2.17;;;;;;;;;;8334714;28;20367;-70
2021/04/25 09:32:33;;;;;;;5.07;2.53;;;;;;;;;;8350907;28;20044;-70
2021/04/25 09:36:39;;;;;;;4.78;1.75;;;;;;;;;;8352894;28;20052;-71
2021/04/25 09:40:49;;;;;;;4.07;2.15;;;;;;;;;;8353375;28;20082;-71
2021/04/25 09:45:23;;;;;;;7.22;2.30;;;;;;;;;;8352060;28;20351;-71
2021/04/25 09:49:41;;;;;;;4.85;2.20;;;;;;;;;;8332420;28;20360;-70
2021/04/25 09:53:50;;;;;;;6.60;2.95;;;;;;;;;;8332926;28;20359;-72
2021/04/25 09:58:05;;;;;;;12.27;3.95;;;;;;;;;;8349522;28;20465;-72
2021/04/25 10:02:10;;;;;;;12.30;4.45;;;;;;;;;;8349672;28;20405;-71
2021/04/25 10:06:14;;;;;;;11.05;5.50;;;;;;;;;;8349044;28;20391;-72
2021/04/25 10:10:19;;;;;;;7.00;3.25;;;;;;;;;;8328518;28;20378;-70
2021/04/25 10:14:27;;;;;;;7.97;3.80;;;;;;;;;;8311019;28;20381;-71
2021/04/25 10:18:32;;;;;;;13.82;6.38;;;;;;;;;;8310467;28;20102;-70
2021/04/25 10:22:45;;;;;;;8.90;3.42;;;;;;;;;;8327362;28;20490;-70
2021/04/25 10:27:07;;;;;;;5.97;2.25;;;;;;;;;;8309964;28;20477;-70
2021/04/25 10:31:19;;;;;;;10.73;2.80;;;;;;;;;;8310497;28;20486;-70
2021/04/25 10:35:28;;;;;;;4.70;2.03;;;;;;;;;;8327962;28;20376;-70
2021/04/25 10:39:46;;;;;;;7.43;2.58;;;;;;;;;;8328507;28;20412;-70
2021/04/25 10:44:05;;;;;;;5.82;3.28;;;;;;;;;;8327339;28;20435;-70
2021/04/25 10:48:19;;;;;;;4.57;2.10;;;;;;;;;;8326500;28;20378;-70
2021/04/25 10:52:47;;;;;;;7.78;2.67;;;;;;;;;;8326221;28;20567;-70
2021/04/25 10:57:07;;;;;;;4.72;1.77;;;;;;;;;;8308214;28;20587;-69
2021/04/25 11:01:40;;;;;;;4.13;1.60;;;;;;;;;;8326299;28;20462;-69
2021/04/25 11:05:52;;;;;;;4.85;2.45;;;;;;;;;;8327380;28;20040;-70
2021/04/25 11:09:56;;;;;;;5.35;2.22;;;;;;;;;;8325404;28;20362;-69
2021/04/25 11:14:02;;;;;;;4.45;2.47;;;;;;;;;;8325547;28;20487;-70
2021/04/25 11:18:44;;;;;;;3.65;1.90;;;;;;;;;;8325436;28;20447;-70
2021/04/25 11:22:49;;;;;;;6.38;2.97;;;;;;;;;;8308237;28;20463;-70
2021/04/25 11:26:56;;;;;;;6.03;2.25;;;;;;;;;;8325365;28;20364;-70
2021/04/25 11:31:01;;;;;;;4.50;1.98;;;;;;;;;;8325428;28;20459;-70
2021/04/25 11:35:10;;;;;;;6.63;2.22;;;;;;;;;;8325130;28;20417;-70
2021/04/25 11:39:18;;;;;;;5.07;2.15;;;;;;;;;;8309439;28;20466;-70
2021/04/25 11:43:22;;;;;;;5.43;2.15;;;;;;;;;;8326390;28;20454;-70
2021/04/25 11:47:30;;;;;;;3.75;2.00;;;;;;;;;;8308250;28;20350;-69
2021/04/25 11:51:34;;;;;;;3.85;1.92;;;;;;;;;;8306768;28;20056;-70
2021/04/25 11:55:39;;;;;;;5.13;1.88;;;;;;;;;;8325192;28;20416;-72
2021/04/25 11:59:57;;;;;;;8.75;2.88;;;;;;;;;;8325533;28;20479;-72
2021/04/25 12:04:01;;;;;;;6.40;2.80;;;;;;;;;;8325237;28;20410;-69
2021/04/25 12:08:12;;;;;;;8.05;2.60;;;;;;;;;;8306092;28;20986;-71
2021/04/25 12:12:16;;;;;;;10.75;3.63;;;;;;;;;;8324326;28;20380;-71
2021/04/25 12:16:28;;;;;;;6.93;2.47;;;;;;;;;;8326121;28;20368;-69
2021/04/25 12:20:40;;;;;;;7.05;2.75;;;;;;;;;;8323273;28;20048;-70
2021/04/25 12:24:45;;;;;;;5.93;2.33;;;;;;;;;;8304925;28;20355;-70
2021/04/25 12:28:56;;;;;;;9.25;3.53;;;;;;;;;;8306015;28;20336;-70
2021/04/25 12:33:17;;;;;;;4.38;2.33;;;;;;;;;;8306193;28;20371;-69
2021/04/25 12:37:42;;;;;;;7.13;2.08;;;;;;;;;;8323252;28;20478;-69
2021/04/25 12:41:52;;;;;;;7.68;1.90;;;;;;;;;;8305859;28;20070;-70
2021/04/25 12:45:58;;;;;;;4.85;1.50;;;;;;;;;;8323292;28;20378;-70
2021/04/25 12:50:14;;;;;;;5.32;1.70;;;;;;;;;;8305748;28;20475;-70
2021/04/25 12:54:21;;;;;;;4.63;1.50;;;;;;;;;;8304895;28;20055;-70
2021/04/25 12:58:25;;;;;;;4.65;1.77;;;;;;;;;;8289086;28;20383;-69
2021/04/25 13:02:35;;;;;;;4.20;1.88;;;;;;;;;;8288282;28;20463;-70
2021/04/25 13:06:39;;;;;;;3.30;1.33;;;;;;;;;;8289644;28;20048;-69
2021/04/25 13:10:50;;;;;;;1.90;1.10;;;;;;;;;;8289570;28;20072;-70
2021/04/25 13:15:00;;;;;;;3.63;2.13;;;;;;;;;;8288118;28;20341;-70
2021/04/25 13:19:06;;;;;;;6.18;2.85;;;;;;;;;;8287738;28;20505;-70
2021/04/25 13:23:21;;;;;;;4.35;2.13;;;;;;;;;;8290660;28;20340;-70
2021/04/25 13:27:26;;;;;;;4.25;1.38;;;;;;;;;;8290980;28;20406;-70
2021/04/25 13:31:30;;;;;;;5.10;1.60;;;;;;;;;;8292442;28;20448;-70
2021/04/25 13:35:34;;;;;;;4.40;2.00;;;;;;;;;;8287898;28;20391;-70
2021/04/25 13:39:40;;;;;;;4.95;2.45;;;;;;;;;;8291299;28;20375;-69
2021/04/25 13:43:44;;;;;;;4.05;1.38;;;;;;;;;;8291799;28;20395;-71
2021/04/25 13:47:50;;;;;;;3.03;1.35;;;;;;;;;;8295073;28;20356;-70
2021/04/25 13:51:54;;;;;;;8.15;2.33;;;;;;;;;;8293671;28;20044;-69
2021/04/25 13:55:59;;;;;;;7.40;3.95;;;;;;;;;;8300259;28;20048;-70
2021/04/25 14:00:14;;;;;;;6.32;2.30;;;;;;;;;;8328751;28;20434;-69
2021/04/25 14:04:18;;;;;;;8.15;3.72;;;;;;;;;;8327649;28;20048;-69
2021/04/25 14:08:24;;;;;;;6.10;2.25;;;;;;;;;;8326960;28;20048;-69
2021/04/25 14:12:37;;;;;;;5.35;2.80;;;;;;;;;;8312445;28;20348;-69
2021/04/25 14:16:42;;;;;;;7.85;2.53;;;;;;;;;;8326922;28;20352;-70
2021/04/25 14:20:47;;;;;;;5.20;2.70;;;;;;;;;;8327531;28;20069;-70
2021/04/25 14:24:52;;;;;;;7.97;3.28;;;;;;;;;;8326916;28;20770;-70
2021/04/25 14:28:56;;;;;;;8.32;4.50;;;;;;;;;;8309419;28;20360;-71
2021/04/25 14:33:01;;;;;;;8.18;3.67;;;;;;;;;;8328883;28;20347;-70
2021/04/25 14:37:07;;;;;;;4.80;2.47;;;;;;;;;;8309012;28;20378;-70
2021/04/25 14:41:11;;;;;;;2.35;1.33;;;;;;;;;;8326138;28;20387;-71
2021/04/25 14:45:32;;;;;;;2.92;1.58;;;;;;;;;;8311709;28;20393;-70
2021/04/25 14:49:41;;;;;;;5.50;2.22;;;;;;;;;;8327749;28;20078;-70
2021/04/25 14:53:48;;;;;;;32.50;8.63;;;;;;;;;;8326377;28;20447;-69
2021/04/25 14:57:54;;;;;;;8.38;2.10;;;;;;;;;;8325190;28;20074;-70
2021/04/25 15:01:58;;;;;;;8.82;3.85;;;;;;;;;;8326644;28;20409;-70
2021/04/25 15:06:08;;;;;;;5.38;2.50;;;;;;;;;;8325910;28;20078;-69
2021/04/25 15:10:15;;;;;;;8.52;3.85;;;;;;;;;;8325803;28;20489;-70
2021/04/25 15:14:20;;;;;;;10.20;4.75;;;;;;;;;;8325958;28;20052;-70
2021/04/25 15:18:24;;;;;;;13.25;5.43;;;;;;;;;;8326380;28;20453;-71
2021/04/25 15:22:33;;;;;;;8.70;3.25;;;;;;;;;;8325333;28;20527;-71
2021/04/25 15:26:37;;;;;;;4.22;2.00;;;;;;;;;;8325437;28;20466;-70
2021/04/25 15:30:42;;;;;;;4.43;1.85;;;;;;;;;;8307985;28;20074;-70
2021/04/25 15:34:50;;;;;;;3.55;2.10;;;;;;;;;;8325003;28;20371;-69
2021/04/25 15:38:56;;;;;;;7.93;2.90;;;;;;;;;;8325445;28;20362;-69
2021/04/25 15:43:00;;;;;;;16.98;5.93;;;;;;;;;;8307759;28;20455;-70
2021/04/25 15:47:04;;;;;;;11.07;4.90;;;;;;;;;;8306399;28;20438;-70
2021/04/25 15:51:12;;;;;;;8.05;3.33;;;;;;;;;;8325153;28;20367;-70
2021/04/25 15:55:17;;;;;;;4.03;1.92;;;;;;;;;;8324161;28;20354;-70
2021/04/25 15:59:23;;;;;;;2.55;1.50;;;;;;;;;;8324246;28;20457;-69
2021/04/25 16:03:28;;;;;;;5.70;1.83;;;;;;;;;;8323852;28;20505;-69
2021/04/25 16:07:32;;;;;;;5.90;2.17;;;;;;;;;;8323726;28;20383;-70
2021/04/25 16:11:38;;;;;;;4.50;2.00;;;;;;;;;;8323873;28;20469;-69
2021/04/25 16:15:44;;;;;;;2.60;1.48;;;;;;;;;;8305884;28;20071;-69
2021/04/25 16:19:48;;;;;;;9.60;2.75;;;;;;;;;;8324428;28;20383;-69
2021/04/25 16:23:52;;;;;;;3.90;1.60;;;;;;;;;;8321825;28;20364;-69
2021/04/25 16:28:02;;;;;;;8.95;3.15;;;;;;;;;;8322935;28;20048;-70
2021/04/25 16:32:09;;;;;;;4.70;2.35;;;;;;;;;;8308582;28;20360;-69
2021/04/25 16:36:15;;;;;;;5.55;3.10;;;;;;;;;;8324476;28;20393;-70
2021/04/25 16:40:20;;;;;;;8.40;3.17;;;;;;;;;;8304241;28;20052;-69
2021/04/25 16:44:24;;;;;;;4.78;1.40;;;;;;;;;;8321948;28;20359;-70
2021/04/25 16:48:32;;;;;;;6.93;3.17;;;;;;;;;;8289834;28;20401;-70
2021/04/25 16:52:39;;;;;;;6.67;3.37;;;;;;;;;;8323165;28;20052;-69
2021/04/25 16:56:47;;;;;;;9.23;3.15;;;;;;;;;;8305345;28;20048;-70
2021/04/25 17:00:53;;;;;;;15.68;6.53;;;;;;;;;;8305218;28;20078;-69
2021/04/25 17:04:58;;;;;;;27.10;9.00;;;;;;;;;;8304235;28;20458;-69
2021/04/25 17:09:04;;;;;;;20.90;8.70;;;;;;;;;;8322527;28;20048;-69
2021/04/25 17:13:07;;;;;;;15.77;6.18;;;;;;;;;;8319667;28;20382;-69
2021/04/25 17:17:13;;;;;;;17.90;7.80;;;;;;;;;;8302188;28;20044;-69
2021/04/25 17:21:21;;;;;;;14.02;7.40;;;;;;;;;;8329037;28;20048;-70
2021/04/25 17:25:26;;;;;;;8.63;4.37;;;;;;;;;;8312609;28;20052;-69
2021/04/25 17:29:31;;;;;;;10.85;5.32;;;;;;;;;;8312326;28;20370;-70
2021/04/25 17:33:36;;;;;;;6.85;2.92;;;;;;;;;;8329198;28;20478;-69
2021/04/25 17:37:42;;;;;;;10.63;5.18;;;;;;;;;;8310354;28;20355;-70
2021/04/25 17:41:47;;;;;;;4.80;2.25;;;;;;;;;;8311025;28;20354;-71
2021/04/25 17:46:24;;;;;;;4.65;2.35;;;;;;;;;;8326714;28;20351;-70
2021/04/25 17:50:31;;;;;;;5.80;2.30;;;;;;;;;;8296662;28;20371;-71
2021/04/25 17:54:36;;;;;;;;;;;;;;;;;;8278630;28;20379;-71
2021/04/25 17:58:40;;;;;;;7.68;2.63;;;;;;;;;;8248558;28;19943;-71
2021/04/25 18:02:44;;;;;;;6.97;3.00;;;;;;;;;;8243685;28;20525;-71
2021/04/25 18:06:48;;;;;;;13.93;4.45;;;;;;;;;;8262250;28;20375;-71
2021/04/25 18:10:55;;;;;;;36.63;16.42;;;;;;;;;;8262318;28;20371;-70
2021/04/25 18:15:03;;;;;;;25.40;12.88;;;;;;;;;;8245880;28;20368;-71
2021/04/25 18:19:06;;;;;;;19.05;9.27;;;;;;;;;;8243935;28;20079;-72
2021/04/25 18:23:11;;;;;;;13.05;6.75;;;;;;;;;;8260869;28;20092;-70
2021/04/25 18:27:16;;;;;;;22.27;7.95;;;;;;;;;;8242258;28;20464;-70
2021/04/25 18:31:22;;;;;;;30.98;10.57;;;;;;;;;;8240554;28;20067;-70
2021/04/25 18:35:28;;;;;;;42.33;18.27;;;;;;;;;;8243537;28;20371;-70
2021/04/25 18:39:33;;;;;;;50.17;29.48;;;;;;;;;;8261315;28;20380;-70
2021/04/25 18:43:37;;;;;;;92.55;41.85;;;;;;;;;;8244597;28;20076;-69
2021/04/25 18:47:44;;;;;;;124.93;44.33;;;;;;;;;;8245523;28;20403;-70
2021/04/25 18:51:49;;;;;;;8.73;4.53;;;;;;;;;;8260552;28;20053;-71
2021/04/25 18:56:13;;;;;;;9.52;4.35;;;;;;;;;;8253095;28;20440;-72
2021/04/25 19:00:44;;;;;;;8.10;2.90;;;;;;;;;;8293580;28;20467;-69
2021/04/25 19:04:53;;;;;;;8.10;3.00;;;;;;;;;;8293362;28;20056;-70
2021/04/25 19:08:59;;;;;;;8.05;2.95;;;;;;;;;;8293123;28;20496;-70
2021/04/25 19:13:04;;;;;;;9.63;3.92;;;;;;;;;;8275399;28;20052;-70
2021/04/25 19:17:09;;;;;;;15.57;6.18;;;;;;;;;;8292392;28;20489;-70
2021/04/25 19:21:15;;;;;;;12.95;4.57;;;;;;;;;;8292039;28;20465;-70
2021/04/25 19:25:24;;;;;;;16.38;5.68;;;;;;;;;;8292970;28;20382;-70
2021/04/25 19:29:29;;;;;;;20.98;8.02;;;;;;;;;;8291885;28;20693;-70
2021/04/25 19:33:36;;;;;;;44.28;15.50;;;;;;;;;;8275228;28;20413;-70
2021/04/25 19:37:44;;;;;;;36.67;12.25;;;;;;;;;;8292524;28;20451;-70
2021/04/25 19:41:50;;;;;;;60.03;15.55;;;;;;;;;;8293055;28;20455;-71
2021/04/25 19:45:54;;;;;;;65.30;16.90;;;;;;;;;;8273597;28;20402;-71
2021/04/25 19:49:59;;;;;;;101.68;25.95;;;;;;;;;;8274251;28;20479;-71
2021/04/25 19:54:06;;;;;;;48.35;13.65;;;;;;;;;;8291570;28;20466;-70
2021/04/25 19:58:11;;;;;;;42.00;12.98;;;;;;;;;;8290632;28;20467;-69
2021/04/25 20:02:27;;;;;;;31.33;9.57;;;;;;;;;;8273677;28;20379;-70
2021/04/25 20:06:33;;;;;;;33.33;9.13;;;;;;;;;;8290878;28;20049;-71
2021/04/25 20:10:39;;;;;;;32.33;8.90;;;;;;;;;;8273292;28;20477;-69
2021/04/25 20:14:44;;;;;;;22.13;8.43;;;;;;;;;;8292104;28;20493;-70
2021/04/25 20:18:49;;;;;;;22.95;8.60;;;;;;;;;;8290848;28;20489;-70
2021/04/25 20:22:55;;;;;;;36.75;9.02;;;;;;;;;;8290585;28;20360;-69
2021/04/25 20:27:05;;;;;;;30.83;8.57;;;;;;;;;;8291532;28;20458;-69
2021/04/25 20:31:12;;;;;;;34.90;10.50;;;;;;;;;;8291042;28;20489;-68
2021/04/25 20:35:20;;;;;;;25.23;8.57;;;;;;;;;;8273376;28;20343;-68
2021/04/25 20:39:26;;;;;;;38.90;11.30;;;;;;;;;;8289314;28;20391;-68
2021/04/25 20:43:30;;;;;;;22.45;8.80;;;;;;;;;;8290646;28;20041;-69
2021/04/25 20:47:35;;;;;;;26.42;8.80;;;;;;;;;;8290489;28;20375;-69
2021/04/25 20:51:40;;;;;;;35.90;9.50;;;;;;;;;;8256341;28;20379;-70
2021/04/25 20:55:45;;;;;;;27.52;8.55;;;;;;;;;;8272747;28;20356;-70
2021/04/25 20:59:49;;;;;;;30.77;9.25;;;;;;;;;;8288537;28;20540;-70
2021/04/25 21:03:54;;;;;;;26.50;8.57;;;;;;;;;;8290345;28;20475;-67
2021/04/25 21:08:02;;;;;;;35.90;10.15;;;;;;;;;;8288174;28;20506;-70
2021/04/25 21:12:07;;;;;;;35.25;10.30;;;;;;;;;;8289492;28;20452;-69
2021/04/25 21:16:12;;;;;;;40.22;12.73;;;;;;;;;;8289741;28;20498;-70
2021/04/25 21:20:16;;;;;;;30.40;11.07;;;;;;;;;;8271477;28;20074;-69
2021/04/25 21:24:28;;;;;;;30.50;10.07;;;;;;;;;;8289795;28;20451;-68
2021/04/25 21:28:35;;;;;;;31.90;10.65;;;;;;;;;;8289918;28;20367;-69
2021/04/25 21:32:40;;;;;;;33.60;11.18;;;;;;;;;;8289098;28;20382;-70
2021/04/25 21:36:45;;;;;;;28.27;10.13;;;;;;;;;;8272017;28;20358;-68
2021/04/25 21:40:49;;;;;;;28.13;9.60;;;;;;;;;;8289591;28;20048;-69
2021/04/25 21:44:54;;;;;;;28.23;8.70;;;;;;;;;;8271995;28;20520;-69
2021/04/25 21:48:58;;;;;;;22.08;7.50;;;;;;;;;;8289008;28;20406;-68
2021/04/25 21:55:44;;;;;;;28.75;9.80;;;;;;;;;;8379602;27;1137579;-68
2021/04/25 21:59:59;;;;;;;32.28;10.55;;;;;;;;;;8419728;27;20844;-68
2021/04/25 22:04:25;;;;;;;31.67;10.15;;;;;;;;;;8397232;27;760401;-68
2021/04/25 22:08:41;;;;;;;30.40;10.63;;;;;;;;;;8395453;27;756958;-70
2021/04/25 22:12:55;;;;;;;26.98;9.40;;;;;;;;;;8394772;27;767677;-69
2021/04/25 22:17:10;;;;;;;33.45;8.98;;;;;;;;;;8420093;27;21050;-69
2021/04/25 22:21:23;;;;;;;25.17;8.48;;;;;;;;;;8395707;27;749812;-68
2021/04/25 22:25:39;;;;;;;22.92;8.93;;;;;;;;;;8420027;27;21128;-68
2021/04/25 22:29:55;;;;;;;34.22;10.98;;;;;;;;;;8419151;27;20913;-67
2021/04/25 22:34:10;;;;;;;22.10;7.45;;;;;;;;;;8420977;27;20885;-66
2021/04/25 22:38:28;;;;;;;16.13;6.50;;;;;;;;;;8419013;27;20837;-68
2021/04/25 22:42:47;;;;;;;21.90;7.55;;;;;;;;;;8418998;27;20561;-67
2021/04/25 22:47:03;;;;;;;27.65;9.20;;;;;;;;;;8419087;27;20848;-66
2021/04/25 22:51:19;;;;;;;25.60;9.57;;;;;;;;;;8422320;27;21038;-68
2021/04/25 22:55:36;;;;;;;20.77;6.93;;;;;;;;;;8419679;27;20987;-67
2021/04/25 22:59:52;;;;;;;20.85;7.93;;;;;;;;;;8420173;27;20853;-66
2021/04/25 23:04:37;;;;;;;22.02;8.05;;;;;;;;;;8313834;27;3112687;-70
2021/04/25 23:08:52;;;;;;;20.42;7.45;;;;;;;;;;8419921;27;21115;-66
2021/04/25 23:12:57;;;;;;;22.58;8.07;;;;;;;;;;8386873;28;20495;-66
2021/04/25 23:17:13;;;;;;;27.95;9.10;;;;;;;;;;8420071;27;20549;-68
2021/04/25 23:21:29;;;;;;;23.25;8.95;;;;;;;;;;8420196;27;20550;-68
2021/04/25 23:25:45;;;;;;;26.60;9.07;;;;;;;;;;8419851;27;20828;-68
2021/04/25 23:29:59;;;;;;;25.77;8.73;;;;;;;;;;8394079;27;801013;-68
2021/04/25 23:34:13;;;;;;;23.40;8.60;;;;;;;;;;8374426;27;1357404;-65
2021/04/25 23:38:24;;;;;;;23.20;8.75;;;;;;;;;;8386586;28;20431;-66
2021/04/25 23:42:29;;;;;;;25.95;8.77;;;;;;;;;;8386369;28;20462;-67
2021/04/25 23:46:33;;;;;;;24.60;8.15;;;;;;;;;;8385387;28;20354;-67
2021/04/25 23:50:38;;;;;;;25.48;7.95;;;;;;;;;;8385502;28;20074;-67
2021/04/25 23:54:45;;;;;;;23.13;8.18;;;;;;;;;;8385340;28;20480;-67
2021/04/25 23:58:49;;;;;;;20.38;8.05;;;;;;;;;;8386103;28;20065;-67
